sensor_id;sensor_type;location;lat;lon;timestamp;pressure;altitude;pressure_sealevel;temperature;humidity
54453;BME280;40363;52.270;10.546;2023-04-09T00:01:38;78427.97;;;-147.06;100.00
54453;BME280;40363;52.270;10.546;2023-04-09T00:04:05;78448.53;;;-147.06;100.00
54453;BME280;40363;52.270;10.546;2023-04-09T00:06:32;78442.38;;;-147.06;100.00
54453;BME280;40363;52.270;10.546;2023-04-09T00:08:58;78434.16;;;-147.06;100.00
54453;BME280;40363;52.270;10.546;2023-04-09T00:11:25;78438.25;;;-147.06;100.00
54453;BME280;40363;52.270;10.546;2023-04-09T00:13:51;78436.22;;;-147.06;100.00
54453;BME280;40363;52.270;10.546;2023-04-09T00:16:19;78454.72;;;-147.06;100.00
54453;BME280;40363;52.270;10.546;2023-04-09T00:18:46;78440.31;;;-147.06;100.00
54453;BME280;40363;52.270;10.546;2023-04-09T00:21:12;78493.78;;;-147.06;100.00
54453;BME280;40363;52.270;10.546;2023-04-09T00:23:40;78489.66;;;-147.06;100.00
54453;BME280;40363;52.270;10.546;2023-04-09T00:26:07;78481.44;;;-147.06;100.00
54453;BME280;40363;52.270;10.546;2023-04-09T00:28:33;78483.50;;;-147.06;100.00
54453;BME280;40363;52.270;10.546;2023-04-09T00:31:00;78487.63;;;-147.06;100.00
54453;BME280;40363;52.270;10.546;2023-04-09T00:33:28;78483.50;;;-147.06;100.00
54453;BME280;40363;52.270;10.546;2023-04-09T00:35:54;78481.44;;;-147.06;100.00
54453;BME280;40363;52.270;10.546;2023-04-09T00:38:21;78487.63;;;-147.06;100.00
54453;BME280;40363;52.270;10.546;2023-04-09T00:40:48;78499.94;;;-147.06;100.00
54453;BME280;40363;52.270;10.546;2023-04-09T00:43:15;78512.28;;;-147.06;100.00
54453;BME280;40363;52.270;10.546;2023-04-09T00:45:42;78518.47;;;-147.06;100.00
54453;BME280;40363;52.270;10.546;2023-04-09T00:48:09;78526.69;;;-147.06;100.00
54453;BME280;40363;52.270;10.546;2023-04-09T00:50:37;78532.84;;;-147.06;100.00
54453;BME280;40363;52.270;10.546;2023-04-09T00:53:04;78539.03;;;-147.06;100.00
54453;BME280;40363;52.270;10.546;2023-04-09T00:55:30;78539.03;;;-147.06;100.00
54453;BME280;40363;52.270;10.546;2023-04-09T00:57:57;78543.13;;;-147.06;100.00
54453;BME280;40363;52.270;10.546;2023-04-09T01:00:24;78532.84;;;-147.06;100.00
54453;BME280;40363;52.270;10.546;2023-04-09T01:02:52;78532.84;;;-147.06;100.00
54453;BME280;40363;52.270;10.546;2023-04-09T01:05:23;78534.91;;;-147.06;100.00
54453;BME280;40363;52.270;10.546;2023-04-09T01:07:59;78526.69;;;-147.06;100.00
54453;BME280;40363;52.270;10.546;2023-04-09T01:10:37;78524.63;;;-147.06;100.00
54453;BME280;40363;52.270;10.546;2023-04-09T01:13:10;78514.34;;;-147.06;100.00
54453;BME280;40363;52.270;10.546;2023-04-09T01:15:43;78518.47;;;-147.06;100.00
54453;BME280;40363;52.270;10.546;2023-04-09T01:18:17;78524.63;;;-147.06;100.00
54453;BME280;40363;52.270;10.546;2023-04-09T01:20:50;78524.63;;;-147.06;100.00
54453;BME280;40363;52.270;10.546;2023-04-09T01:23:29;78532.84;;;-147.06;100.00
54453;BME280;40363;52.270;10.546;2023-04-09T01:26:03;78536.97;;;-147.06;100.00
54453;BME280;40363;52.270;10.546;2023-04-09T01:28:34;78534.91;;;-147.06;100.00
54453;BME280;40363;52.270;10.546;2023-04-09T01:31:06;78543.13;;;-147.06;100.00
54453;BME280;40363;52.270;10.546;2023-04-09T01:33:34;78549.31;;;-147.06;100.00
54453;BME280;40363;52.270;10.546;2023-04-09T01:36:03;78541.09;;;-147.06;100.00
54453;BME280;40363;52.270;10.546;2023-04-09T01:38:32;78545.19;;;-147.06;100.00
54453;BME280;40363;52.270;10.546;2023-04-09T01:41:02;78553.41;;;-147.06;100.00
54453;BME280;40363;52.270;10.546;2023-04-09T01:43:30;78561.66;;;-147.06;100.00
54453;BME280;40363;52.270;10.546;2023-04-09T01:46:00;78559.59;;;-147.06;100.00
54453;BME280;40363;52.270;10.546;2023-04-09T01:48:28;78555.47;;;-147.06;100.00
54453;BME280;40363;52.270;10.546;2023-04-09T01:50:55;78551.38;;;-147.06;100.00
54453;BME280;40363;52.270;10.546;2023-04-09T01:53:22;78549.31;;;-147.06;100.00
54453;BME280;40363;52.270;10.546;2023-04-09T01:55:48;78555.47;;;-147.06;100.00
54453;BME280;40363;52.270;10.546;2023-04-09T01:58:15;78561.66;;;-147.06;100.00
54453;BME280;40363;52.270;10.546;2023-04-09T02:00:45;78557.53;;;-147.06;100.00
54453;BME280;40363;52.270;10.546;2023-04-09T02:03:16;78557.53;;;-147.06;100.00
54453;BME280;40363;52.270;10.546;2023-04-09T02:05:45;78557.53;;;-147.06;100.00
54453;BME280;40363;52.270;10.546;2023-04-09T02:08:19;78561.66;;;-147.06;100.00
54453;BME280;40363;52.270;10.546;2023-04-09T02:10:50;78559.59;;;-147.06;100.00
54453;BME280;40363;52.270;10.546;2023-04-09T02:13:18;78569.88;;;-147.06;100.00
54453;BME280;40363;52.270;10.546;2023-04-09T02:15:46;78565.75;;;-147.06;100.00
54453;BME280;40363;52.270;10.546;2023-04-09T02:18:22;78565.75;;;-147.06;100.00
54453;BME280;40363;52.270;10.546;2023-04-09T02:20:49;78580.16;;;-147.06;100.00
54453;BME280;40363;52.270;10.546;2023-04-09T02:23:15;78578.09;;;-147.06;100.00
54453;BME280;40363;52.270;10.546;2023-04-09T02:25:42;78573.97;;;-147.06;100.00
54453;BME280;40363;52.270;10.546;2023-04-09T02:28:09;78569.88;;;-147.06;100.00
54453;BME280;40363;52.270;10.546;2023-04-09T02:30:36;78576.03;;;-147.06;100.00
54453;BME280;40363;52.270;10.546;2023-04-09T02:33:02;78569.88;;;-147.06;100.00
54453;BME280;40363;52.270;10.546;2023-04-09T02:35:30;78569.88;;;-147.06;100.00
54453;BME280;40363;52.270;10.546;2023-04-09T02:37:57;78565.75;;;-147.06;100.00
54453;BME280;40363;52.270;10.546;2023-04-09T02:40:23;78571.94;;;-147.06;100.00
54453;BME280;40363;52.270;10.546;2023-04-09T02:42:50;78578.09;;;-147.06;100.00
54453;BME280;40363;52.270;10.546;2023-04-09T02:45:17;78561.66;;;-147.06;100.00
54453;BME280;40363;52.270;10.546;2023-04-09T02:47:44;78569.88;;;-147.06;100.00
54453;BME280;40363;52.270;10.546;2023-04-09T02:50:10;78561.66;;;-147.06;100.00
54453;BME280;40363;52.270;10.546;2023-04-09T02:52:38;78573.97;;;-147.06;100.00
54453;BME280;40363;52.270;10.546;2023-04-09T02:55:06;78561.66;;;-147.06;100.00
54453;BME280;40363;52.270;10.546;2023-04-09T02:57:32;78555.47;;;-147.06;100.00
54453;BME280;40363;52.270;10.546;2023-04-09T03:00:00;78549.31;;;-147.06;100.00
54453;BME280;40363;52.270;10.546;2023-04-09T03:02:27;78536.97;;;-147.06;100.00
54453;BME280;40363;52.270;10.546;2023-04-09T03:04:53;78569.88;;;-147.06;100.00
54453;BME280;40363;52.270;10.546;2023-04-09T03:07:21;78557.53;;;-147.06;100.00
54453;BME280;40363;52.270;10.546;2023-04-09T03:09:49;78547.25;;;-147.06;100.00
54453;BME280;40363;52.270;10.546;2023-04-09T03:12:15;78543.13;;;-147.06;100.00
54453;BME280;40363;52.270;10.546;2023-04-09T03:14:42;78539.03;;;-147.06;100.00
54453;BME280;40363;52.270;10.546;2023-04-09T03:17:08;78528.75;;;-147.06;100.00
54453;BME280;40363;52.270;10.546;2023-04-09T03:19:35;78520.50;;;-147.06;100.00
54453;BME280;40363;52.270;10.546;2023-04-09T03:22:01;78526.69;;;-147.06;100.00
54453;BME280;40363;52.270;10.546;2023-04-09T03:24:28;78532.84;;;-147.06;100.00
54453;BME280;40363;52.270;10.546;2023-04-09T03:26:56;78536.97;;;-147.06;100.00
54453;BME280;40363;52.270;10.546;2023-04-09T03:29:22;78532.84;;;-147.06;100.00
54453;BME280;40363;52.270;10.546;2023-04-09T03:31:50;78526.69;;;-147.06;100.00
54453;BME280;40363;52.270;10.546;2023-04-09T03:34:16;78530.81;;;-147.06;100.00
54453;BME280;40363;52.270;10.546;2023-04-09T03:36:43;78541.09;;;-147.06;100.00
54453;BME280;40363;52.270;10.546;2023-04-09T03:39:09;78551.38;;;-147.06;100.00
54453;BME280;40363;52.270;10.546;2023-04-09T03:41:36;78541.09;;;-147.06;100.00
54453;BME280;40363;52.270;10.546;2023-04-09T03:44:04;78545.19;;;-147.06;100.00
54453;BME280;40363;52.270;10.546;2023-04-09T03:46:31;78555.47;;;-147.06;100.00
54453;BME280;40363;52.270;10.546;2023-04-09T03:48:57;78573.97;;;-147.06;100.00
54453;BME280;40363;52.270;10.546;2023-04-09T03:51:24;78569.88;;;-147.06;100.00
54453;BME280;40363;52.270;10.546;2023-04-09T03:53:51;78569.88;;;-147.06;100.00
54453;BME280;40363;52.270;10.546;2023-04-09T03:56:18;78557.53;;;-147.06;100.00
54453;BME280;40363;52.270;10.546;2023-04-09T03:58:44;78559.59;;;-147.06;100.00
54453;BME280;40363;52.270;10.546;2023-04-09T04:01:14;78553.41;;;-147.06;100.00
54453;BME280;40363;52.270;10.546;2023-04-09T04:03:40;78551.38;;;-147.06;100.00
54453;BME280;40363;52.270;10.546;2023-04-09T04:06:07;78543.13;;;-147.06;100.00
54453;BME280;40363;52.270;10.546;2023-04-09T04:08:33;78545.19;;;-147.06;100.00
54453;BME280;40363;52.270;10.546;2023-04-09T04:11:02;78549.31;;;-147.06;100.00
54453;BME280;40363;52.270;10.546;2023-04-09T04:13:29;78557.53;;;-147.06;100.00
54453;BME280;40363;52.270;10.546;2023-04-09T04:15:55;78532.84;;;-147.06;100.00
54453;BME280;40363;52.270;10.546;2023-04-09T04:18:23;78528.75;;;-147.06;100.00
54453;BME280;40363;52.270;10.546;2023-04-09T04:20:50;78518.47;;;-147.06;100.00
54453;BME280;40363;52.270;10.546;2023-04-09T04:23:16;78520.50;;;-147.06;100.00
54453;BME280;40363;52.270;10.546;2023-04-09T04:25:43;78508.19;;;-147.06;100.00
54453;BME280;40363;52.270;10.546;2023-04-09T04:28:09;78514.34;;;-147.06;100.00
54453;BME280;40363;52.270;10.546;2023-04-09T04:30:36;78502.00;;;-147.06;100.00
54453;BME280;40363;52.270;10.546;2023-04-09T04:33:02;78504.06;;;-147.06;100.00
54453;BME280;40363;52.270;10.546;2023-04-09T04:35:30;78493.78;;;-147.06;100.00
54453;BME280;40363;52.270;10.546;2023-04-09T04:37:57;78487.63;;;-147.06;100.00
54453;BME280;40363;52.270;10.546;2023-04-09T04:40:23;78489.66;;;-147.06;100.00
54453;BME280;40363;52.270;10.546;2023-04-09T04:42:50;78487.63;;;-147.06;100.00
54453;BME280;40363;52.270;10.546;2023-04-09T04:45:17;78479.38;;;-147.06;100.00
54453;BME280;40363;52.270;10.546;2023-04-09T04:47:43;78493.78;;;-147.06;100.00
54453;BME280;40363;52.270;10.546;2023-04-09T04:50:10;78485.56;;;-147.06;100.00
54453;BME280;40363;52.270;10.546;2023-04-09T04:52:38;78475.28;;;-147.06;100.00
54453;BME280;40363;52.270;10.546;2023-04-09T04:55:05;78473.22;;;-147.06;100.00
54453;BME280;40363;52.270;10.546;2023-04-09T04:57:32;78471.16;;;-147.06;100.00
54453;BME280;40363;52.270;10.546;2023-04-09T04:59:58;78454.72;;;-147.06;100.00
54453;BME280;40363;52.270;10.546;2023-04-09T05:02:25;78462.94;;;-147.06;100.00
54453;BME280;40363;52.270;10.546;2023-04-09T05:04:51;78448.53;;;-147.06;100.00
54453;BME280;40363;52.270;10.546;2023-04-09T05:07:18;78440.31;;;-147.06;100.00
54453;BME280;40363;52.270;10.546;2023-04-09T05:09:48;78430.03;;;-147.06;100.00
54453;BME280;40363;52.270;10.546;2023-04-09T05:12:14;78427.97;;;-147.06;100.00
54453;BME280;40363;52.270;10.546;2023-04-09T05:14:42;78438.25;;;-147.06;100.00
54453;BME280;40363;52.270;10.546;2023-04-09T05:17:08;78434.16;;;-147.06;100.00
54453;BME280;40363;52.270;10.546;2023-04-09T05:19:35;78425.94;;;-147.06;100.00
54453;BME280;40363;52.270;10.546;2023-04-09T05:22:02;78430.03;;;-147.06;100.00
54453;BME280;40363;52.270;10.546;2023-04-09T05:24:28;78415.63;;;-147.06;100.00
54453;BME280;40363;52.270;10.546;2023-04-09T05:26:56;78407.41;;;-147.06;100.00
54453;BME280;40363;52.270;10.546;2023-04-09T05:29:22;78401.25;;;-147.06;100.00
54453;BME280;40363;52.270;10.546;2023-04-09T05:32:14;78384.78;;;-147.06;100.00
54453;BME280;40363;52.270;10.546;2023-04-09T05:37:59;78374.50;;;-147.06;100.00
54453;BME280;40363;52.270;10.546;2023-04-09T05:40:26;78384.78;;;-147.06;100.00
54453;BME280;40363;52.270;10.546;2023-04-09T05:42:53;78393.03;;;-147.06;100.00
54453;BME280;40363;52.270;10.546;2023-04-09T05:45:20;78372.47;;;-147.06;100.00
54453;BME280;40363;52.270;10.546;2023-04-09T05:47:47;78364.22;;;-147.06;100.00
54453;BME280;40363;52.270;10.546;2023-04-09T05:50:13;78372.47;;;-147.06;100.00
54453;BME280;40363;52.270;10.546;2023-04-09T05:52:40;78339.56;;;-147.06;100.00
54453;BME280;40363;52.270;10.546;2023-04-09T05:55:07;78325.16;;;-147.06;100.00
54453;BME280;40363;52.270;10.546;2023-04-09T05:57:36;78333.38;;;-147.06;100.00
54453;BME280;40363;52.270;10.546;2023-04-09T06:00:05;78337.50;;;-147.06;100.00
54453;BME280;40363;52.270;10.546;2023-04-09T06:02:33;78321.06;;;-147.06;100.00
54453;BME280;40363;52.270;10.546;2023-04-09T06:05:00;78316.94;;;-147.06;100.00
54453;BME280;40363;52.270;10.546;2023-04-09T06:07:26;78300.50;;;-147.06;100.00
54453;BME280;40363;52.270;10.546;2023-04-09T06:09:54;78290.22;;;-147.06;100.00
54453;BME280;40363;52.270;10.546;2023-04-09T06:12:22;78288.16;;;-147.06;100.00
54453;BME280;40363;52.270;10.546;2023-04-09T06:14:52;78290.22;;;-147.06;100.00
54453;BME280;40363;52.270;10.546;2023-04-09T06:17:20;78290.22;;;-147.06;100.00
54453;BME280;40363;52.270;10.546;2023-04-09T06:19:47;78286.09;;;-147.06;100.00
54453;BME280;40363;52.270;10.546;2023-04-09T06:22:13;78294.31;;;-147.06;100.00
54453;BME280;40363;52.270;10.546;2023-04-09T06:24:40;78306.66;;;-147.06;100.00
54453;BME280;40363;52.270;10.546;2023-04-09T06:27:07;78323.09;;;-147.06;100.00
54453;BME280;40363;52.270;10.546;2023-04-09T06:29:33;78294.31;;;-147.06;100.00
54453;BME280;40363;52.270;10.546;2023-04-09T06:32:00;78284.03;;;-147.06;100.00
54453;BME280;40363;52.270;10.546;2023-04-09T06:34:33;78271.69;;;-147.06;100.00
54453;BME280;40363;52.270;10.546;2023-04-09T06:37:02;78269.63;;;-147.06;100.00
54453;BME280;40363;52.270;10.546;2023-04-09T06:39:29;78273.75;;;-147.06;100.00
54453;BME280;40363;52.270;10.546;2023-04-09T06:41:55;78279.94;;;-147.06;100.00
54453;BME280;40363;52.270;10.546;2023-04-09T06:44:22;78273.75;;;-147.06;100.00
54453;BME280;40363;52.270;10.546;2023-04-09T06:46:49;78249.09;;;-147.06;100.00
54453;BME280;40363;52.270;10.546;2023-04-09T06:49:16;78244.97;;;-147.06;100.00
54453;BME280;40363;52.270;10.546;2023-04-09T06:51:45;78253.19;;;-147.06;100.00
54453;BME280;40363;52.270;10.546;2023-04-09T06:54:12;78261.41;;;-147.06;100.00
54453;BME280;40363;52.270;10.546;2023-04-09T06:56:38;78240.84;;;-147.06;100.00
54453;BME280;40363;52.270;10.546;2023-04-09T06:59:05;78224.41;;;-147.06;100.00
54453;BME280;40363;52.270;10.546;2023-04-09T07:01:36;78203.84;;;-147.06;100.00
54453;BME280;40363;52.270;10.546;2023-04-09T07:04:02;78191.50;;;-147.06;100.00
54453;BME280;40363;52.270;10.546;2023-04-09T07:06:30;78187.41;;;-147.06;100.00
54453;BME280;40363;52.270;10.546;2023-04-09T07:08:58;78205.91;;;-147.06;100.00
54453;BME280;40363;52.270;10.546;2023-04-09T07:11:24;78232.63;;;-147.06;100.00
54453;BME280;40363;52.270;10.546;2023-04-09T07:13:51;78193.56;;;-147.06;100.00
54453;BME280;40363;52.270;10.546;2023-04-09T07:16:18;78189.44;;;-147.06;100.00
54453;BME280;40363;52.270;10.546;2023-04-09T07:18:45;78207.94;;;-147.06;100.00
54453;BME280;40363;52.270;10.546;2023-04-09T07:21:11;78199.72;;;-147.06;100.00
54453;BME280;40363;52.270;10.546;2023-04-09T07:23:38;78175.06;;;-147.06;100.00
54453;BME280;40363;52.270;10.546;2023-04-09T07:26:09;78166.81;;;-147.06;100.00
54453;BME280;40363;52.270;10.546;2023-04-09T07:28:36;78179.16;;;-147.06;100.00
54453;BME280;40363;52.270;10.546;2023-04-09T07:31:03;78168.88;;;-147.06;100.00
54453;BME280;40363;52.270;10.546;2023-04-09T07:33:29;78138.03;;;-147.06;100.00
54453;BME280;40363;52.270;10.546;2023-04-09T07:35:56;78125.72;;;-147.06;100.00
54453;BME280;40363;52.270;10.546;2023-04-09T07:38:23;78101.03;;;-147.06;100.00
54453;BME280;40363;52.270;10.546;2023-04-09T07:40:49;78088.69;;;-147.06;100.00
54453;BME280;40363;52.270;10.546;2023-04-09T07:43:17;78080.47;;;-147.06;100.00
54453;BME280;40363;52.270;10.546;2023-04-09T07:45:44;78078.41;;;-147.06;100.00
54453;BME280;40363;52.270;10.546;2023-04-09T07:48:10;78076.34;;;-147.06;100.00
54453;BME280;40363;52.270;10.546;2023-04-09T07:50:37;78082.53;;;-147.06;100.00
54453;BME280;40363;52.270;10.546;2023-04-09T07:53:04;78066.06;;;-147.06;100.00
54453;BME280;40363;52.270;10.546;2023-04-09T07:55:30;78076.34;;;-147.06;100.00
54453;BME280;40363;52.270;10.546;2023-04-09T07:57:57;78070.19;;;-147.06;100.00
54453;BME280;40363;52.270;10.546;2023-04-09T08:00:25;78138.03;;;-147.06;100.00
54453;BME280;40363;52.270;10.546;2023-04-09T08:02:52;78142.16;;;-147.06;100.00
54453;BME280;40363;52.270;10.546;2023-04-09T08:05:18;78101.03;;;-147.06;100.00
54453;BME280;40363;52.270;10.546;2023-04-09T08:07:45;78080.47;;;-147.06;100.00
54453;BME280;40363;52.270;10.546;2023-04-09T08:10:11;78061.97;;;-147.06;100.00
54453;BME280;40363;52.270;10.546;2023-04-09T08:12:40;78051.69;;;-147.06;100.00
54453;BME280;40363;52.270;10.546;2023-04-09T08:15:07;78101.03;;;-147.06;100.00
54453;BME280;40363;52.270;10.546;2023-04-09T08:17:36;78090.75;;;-147.06;100.00
54453;BME280;40363;52.270;10.546;2023-04-09T08:20:02;78144.22;;;-147.06;100.00
54453;BME280;40363;52.270;10.546;2023-04-09T08:22:29;78148.31;;;-147.06;100.00
54453;BME280;40363;52.270;10.546;2023-04-09T08:24:56;78123.66;;;-147.06;100.00
54453;BME280;40363;52.270;10.546;2023-04-09T08:27:23;78101.03;;;-147.06;100.00
54453;BME280;40363;52.270;10.546;2023-04-09T08:29:50;78096.91;;;-147.06;100.00
54453;BME280;40363;52.270;10.546;2023-04-09T08:32:16;78090.75;;;-147.06;100.00
54453;BME280;40363;52.270;10.546;2023-04-09T08:34:44;78131.88;;;-147.06;100.00
54453;BME280;40363;52.270;10.546;2023-04-09T08:37:11;78150.38;;;-147.06;100.00
54453;BME280;40363;52.270;10.546;2023-04-09T08:39:38;78138.03;;;-147.06;100.00
54453;BME280;40363;52.270;10.546;2023-04-09T08:42:05;78123.66;;;-147.06;100.00
54453;BME280;40363;52.270;10.546;2023-04-09T08:44:33;78082.53;;;-147.06;100.00
54453;BME280;40363;52.270;10.546;2023-04-09T08:47:00;78090.75;;;-147.06;100.00
54453;BME280;40363;52.270;10.546;2023-04-09T08:49:27;78086.63;;;-147.06;100.00
54453;BME280;40363;52.270;10.546;2023-04-09T08:51:55;78057.84;;;-147.06;100.00
54453;BME280;40363;52.270;10.546;2023-04-09T08:54:21;78084.59;;;-147.06;100.00
54453;BME280;40363;52.270;10.546;2023-04-09T08:56:51;78059.91;;;-147.06;100.00
54453;BME280;40363;52.270;10.546;2023-04-09T08:59:17;78068.13;;;-147.06;100.00
54453;BME280;40363;52.270;10.546;2023-04-09T09:01:44;78092.81;;;-147.06;100.00
54453;BME280;40363;52.270;10.546;2023-04-09T09:04:13;78068.13;;;-147.06;100.00
54453;BME280;40363;52.270;10.546;2023-04-09T09:06:40;78092.81;;;-147.06;100.00
54453;BME280;40363;52.270;10.546;2023-04-09T09:09:10;78066.06;;;-147.06;100.00
54453;BME280;40363;52.270;10.546;2023-04-09T09:11:38;78031.13;;;-147.06;98.52
54453;BME280;40363;52.270;10.546;2023-04-09T09:14:07;77987.94;;;-147.06;97.08
54453;BME280;40363;52.270;10.546;2023-04-09T09:16:35;77975.59;;;-147.06;96.38
54453;BME280;40363;52.270;10.546;2023-04-09T09:19:04;77915.97;;;-147.06;93.58
54453;BME280;40363;52.270;10.546;2023-04-09T09:21:31;77874.84;;;-147.06;92.44
54453;BME280;40363;52.270;10.546;2023-04-09T09:23:59;77872.81;;;-147.06;90.26
54453;BME280;40363;52.270;10.546;2023-04-09T09:26:28;77876.91;;;-147.06;89.22
54453;BME280;40363;52.270;10.546;2023-04-09T09:28:56;77903.63;;;-147.06;87.54
54453;BME280;40363;52.270;10.546;2023-04-09T09:31:24;77878.97;;;-147.06;87.37
54453;BME280;40363;52.270;10.546;2023-04-09T09:33:51;77841.97;;;-147.06;86.76
54453;BME280;40363;52.270;10.546;2023-04-09T09:36:31;77846.06;;;-147.06;86.01
54453;BME280;40363;52.270;10.546;2023-04-09T09:38:58;77837.84;;;-147.06;85.69
54453;BME280;40363;52.270;10.546;2023-04-09T09:41:30;77772.06;;;-147.06;84.05
54453;BME280;40363;52.270;10.546;2023-04-09T09:43:57;77747.38;;;-147.06;81.13
54453;BME280;40363;52.270;10.546;2023-04-09T09:46:25;77644.59;;;-147.06;77.60
54453;BME280;40363;52.270;10.546;2023-04-09T09:48:52;77687.75;;;-147.06;80.03
54453;BME280;40363;52.270;10.546;2023-04-09T09:51:24;77642.53;;;-147.06;77.31
54453;BME280;40363;52.270;10.546;2023-04-09T09:53:54;77634.31;;;-147.06;76.34
54453;BME280;40363;52.270;10.546;2023-04-09T09:56:23;77401.97;;;-147.06;69.58
54453;BME280;40363;52.270;10.546;2023-04-09T09:59:01;77459.53;;;-147.06;70.13
54453;BME280;40363;52.270;10.546;2023-04-09T10:01:32;77566.44;;;-147.06;71.08
54453;BME280;40363;52.270;10.546;2023-04-09T10:04:00;77619.91;;;-147.06;73.19
54453;BME280;40363;52.270;10.546;2023-04-09T10:06:28;77482.16;;;-147.06;70.39
54453;BME280;40363;52.270;10.546;2023-04-09T10:08:56;77558.22;;;-147.06;72.21
54453;BME280;40363;52.270;10.546;2023-04-09T10:11:23;77408.16;;;-147.06;69.58
54453;BME280;40363;52.270;10.546;2023-04-09T10:13:53;77385.53;;;-147.06;68.45
54453;BME280;40363;52.270;10.546;2023-04-09T10:16:23;77601.41;;;-147.06;74.34
54453;BME280;40363;52.270;10.546;2023-04-09T10:18:51;77656.91;;;-147.06;76.04
54453;BME280;40363;52.270;10.546;2023-04-09T10:21:25;77537.66;;;-147.06;72.96
54453;BME280;40363;52.270;10.546;2023-04-09T10:23:54;77533.56;;;-147.06;72.77
54453;BME280;40363;52.270;10.546;2023-04-09T10:26:24;77681.59;;;-147.06;77.26
54453;BME280;40363;52.270;10.546;2023-04-09T10:29:03;77558.22;;;-147.06;74.06
54453;BME280;40363;52.270;10.546;2023-04-09T10:32:02;77344.41;;;-147.06;68.61
54453;BME280;40363;52.270;10.546;2023-04-09T10:34:34;77278.63;;;-147.06;64.46
54453;BME280;40363;52.270;10.546;2023-04-09T10:37:01;77145.00;;;-147.06;60.50
54453;BME280;40363;52.270;10.546;2023-04-09T10:39:30;77192.28;;;-147.06;58.48
54453;BME280;40363;52.270;10.546;2023-04-09T10:41:58;77459.53;;;-147.06;61.17
54453;BME280;40363;52.270;10.546;2023-04-09T10:44:27;77360.88;;;-147.06;60.26
54453;BME280;40363;52.270;10.546;2023-04-09T10:46:57;77319.75;;;-147.06;58.44
54453;BME280;40363;52.270;10.546;2023-04-09T10:49:25;77327.97;;;-147.06;59.10
54453;BME280;40363;52.270;10.546;2023-04-09T10:51:53;77336.19;;;-147.06;60.71
54453;BME280;40363;52.270;10.546;2023-04-09T10:54:38;77439.00;;;-147.06;61.68
54453;BME280;40363;52.270;10.546;2023-04-09T10:57:18;77430.75;;;-147.06;62.87
54453;BME280;40363;52.270;10.546;2023-04-09T10:59:47;77467.78;;;-147.06;63.28
54453;BME280;40363;52.270;10.546;2023-04-09T11:02:48;77459.53;;;-147.06;62.50
54453;BME280;40363;52.270;10.546;2023-04-09T11:05:33;77439.00;;;-147.06;62.51
54453;BME280;40363;52.270;10.546;2023-04-09T11:08:04;77397.88;;;-147.06;61.63
54453;BME280;40363;52.270;10.546;2023-04-09T11:10:31;77373.19;;;-147.06;62.11
54453;BME280;40363;52.270;10.546;2023-04-09T11:12:58;77430.75;;;-147.06;63.81
54453;BME280;40363;52.270;10.546;2023-04-09T11:15:24;77533.56;;;-147.06;63.75
54453;BME280;40363;52.270;10.546;2023-04-09T11:17:52;77471.88;;;-147.06;63.69
54453;BME280;40363;52.270;10.546;2023-04-09T11:20:21;77447.22;;;-147.06;62.93
54453;BME280;40363;52.270;10.546;2023-04-09T11:22:48;77480.09;;;-147.06;64.33
54453;BME280;40363;52.270;10.546;2023-04-09T11:25:19;77426.66;;;-147.06;62.89
54453;BME280;40363;52.270;10.546;2023-04-09T11:27:46;77401.97;;;-147.06;62.00
54453;BME280;40363;52.270;10.546;2023-04-09T11:30:13;77367.03;;;-147.06;61.42
54453;BME280;40363;52.270;10.546;2023-04-09T11:32:40;77443.09;;;-147.06;61.75
54453;BME280;40363;52.270;10.546;2023-04-09T11:35:12;77480.09;;;-147.06;64.17
54453;BME280;40363;52.270;10.546;2023-04-09T11:37:41;77406.09;;;-147.06;62.32
54453;BME280;40363;52.270;10.546;2023-04-09T11:40:13;77383.47;;;-147.06;62.51
54453;BME280;40363;52.270;10.546;2023-04-09T11:42:41;77383.47;;;-147.06;61.33
54453;BME280;40363;52.270;10.546;2023-04-09T11:45:08;77404.03;;;-147.06;62.00
54453;BME280;40363;52.270;10.546;2023-04-09T11:47:36;77418.44;;;-147.06;62.83
54453;BME280;40363;52.270;10.546;2023-04-09T11:50:05;77362.91;;;-147.06;62.94
54453;BME280;40363;52.270;10.546;2023-04-09T11:52:34;77375.25;;;-147.06;62.37
54453;BME280;40363;52.270;10.546;2023-04-09T11:55:01;77414.31;;;-147.06;63.06
54453;BME280;40363;52.270;10.546;2023-04-09T11:57:38;77342.38;;;-147.06;61.39
54453;BME280;40363;52.270;10.546;2023-04-09T12:00:10;77414.31;;;-147.06;63.19
54453;BME280;40363;52.270;10.546;2023-04-09T12:02:39;77422.53;;;-147.06;64.63
54453;BME280;40363;52.270;10.546;2023-04-09T12:05:09;77375.25;;;-147.06;63.09
54453;BME280;40363;52.270;10.546;2023-04-09T12:07:37;77356.75;;;-147.06;61.17
54453;BME280;40363;52.270;10.546;2023-04-09T12:10:05;77408.16;;;-147.06;61.10
54453;BME280;40363;52.270;10.546;2023-04-09T12:12:39;77406.09;;;-147.06;62.29
54453;BME280;40363;52.270;10.546;2023-04-09T12:15:10;77418.44;;;-147.06;62.76
54453;BME280;40363;52.270;10.546;2023-04-09T12:17:37;77381.44;;;-147.06;61.62
54453;BME280;40363;52.270;10.546;2023-04-09T12:20:05;77459.53;;;-147.06;63.02
54453;BME280;40363;52.270;10.546;2023-04-09T12:22:32;77463.66;;;-147.06;63.75
54453;BME280;40363;52.270;10.546;2023-04-09T12:25:01;77375.25;;;-147.06;62.08
54453;BME280;40363;52.270;10.546;2023-04-09T12:27:28;77360.88;;;-147.06;61.88
54453;BME280;40363;52.270;10.546;2023-04-09T12:29:55;77315.63;;;-147.06;60.93
54453;BME280;40363;52.270;10.546;2023-04-09T12:32:22;77309.47;;;-147.06;61.70